»·PEaware :: AAL2033 KLAX-KPHX

AAL2033 :: KLAX-KPHX

FLIGHT INFORMATION

Flight Status: Arrived
Operator:
American Airlines
More flights by this operator :: More flights under this callsign
Pilot: Alex S. (7186)
Aircraft: AIRBUS A321
(A321)
More flights by this aircraft type
Origin: KLAX Los Angeles Intl
United States
Destination: KPHX Phoenix Sky Harbor Intl
United States
More flights between these airports :: More routes between these airports
Route: +HOLTZ2 TRM J169 BLH HYDRR1
File this flight plan on PilotEdge
Remarks: PBN / A1B1C1D1O1S1 NAV / RNVD1E2A1 DAT / V DOF / 170612 REG / N911UY EET / KZAB0032 RMK / NRP SIMBRIEF
Altitude:
(Current/Filed)
29,000ft
Speed:
(Current/Filed)
461kts
Departed: 12-Jun-17 10:43 AM
Arrived: 12-Jun-17 11:43 AM
Distance/Time
Traveled:
321nm/1:00
Distance/Time
To Go:
Arrived

Flight Plot

Page will automatically refresh every two minutes.

Flight plan parsing failed; only flown route is shown


Map Options




Map Legend


Flown Route
Filed Route
Departure Airport
Arrival Airport
Navaid (VOR, NDB)
Fix

Horizontal Profiles

Position Reports

Time Latitude Longitude Heading Altitude Ground
Speed
12-Jun-17 10:03 33.941029 -118.405114 82 140ft 0kts
12-Jun-17 10:04 33.941029 -118.405114 82 140ft 0kts
12-Jun-17 10:05 33.941029 -118.405114 82 140ft 0kts
12-Jun-17 10:06 33.941029 -118.405114 82 140ft 0kts
12-Jun-17 10:07 33.941029 -118.405114 82 140ft 0kts
12-Jun-17 10:08 33.941029 -118.405114 82 140ft 0kts
12-Jun-17 10:09 33.941029 -118.405114 82 140ft 0kts
12-Jun-17 10:10 33.941029 -118.405114 82 140ft 0kts
12-Jun-17 10:11 33.941029 -118.405114 82 140ft 0kts
12-Jun-17 10:12 33.941029 -118.405114 82 140ft 0kts
12-Jun-17 10:13 33.941029 -118.405114 82 140ft 0kts
12-Jun-17 10:14 33.941029 -118.405114 82 140ft 0kts
12-Jun-17 10:15 33.941029 -118.405114 82 140ft 0kts
12-Jun-17 10:16 33.941029 -118.405114 82 140ft 0kts
12-Jun-17 10:17 33.941029 -118.405114 82 140ft 0kts
12-Jun-17 10:18 33.941029 -118.405114 82 140ft 0kts
12-Jun-17 10:19 33.941029 -118.405114 82 140ft 0kts
12-Jun-17 10:20 33.941029 -118.405114 82 140ft 0kts
12-Jun-17 10:21 33.941029 -118.405114 82 140ft 0kts
12-Jun-17 10:22 33.941029 -118.405114 82 140ft 0kts
12-Jun-17 10:23 33.941029 -118.405114 82 140ft 0kts
12-Jun-17 10:24 33.941029 -118.405114 82 140ft 0kts
12-Jun-17 10:25 33.941029 -118.405114 82 140ft 0kts
12-Jun-17 10:26 33.941029 -118.405114 82 140ft 0kts
12-Jun-17 10:27 33.941029 -118.405114 82 140ft 0kts
12-Jun-17 10:28 33.941029 -118.405114 82 140ft 0kts
12-Jun-17 10:29 33.941029 -118.405114 82 140ft 0kts
12-Jun-17 10:30 33.941029 -118.405114 82 140ft 0kts
12-Jun-17 10:31 33.941029 -118.405114 82 140ft 0kts
12-Jun-17 10:32 33.941022 -118.405477 97 140ft 2kts
12-Jun-17 10:33 33.941422 -118.406293 142 140ft 3kts
12-Jun-17 10:34 33.942076 -118.406619 170 140ft 0kts
12-Jun-17 10:35 33.941314 -118.406254 154 140ft 9kts
12-Jun-17 10:36 33.939805 -118.405569 169 140ft 0kts
12-Jun-17 10:37 33.939782 -118.405564 169 140ft 1kts
12-Jun-17 10:38 33.938412 -118.405244 114 140ft 8kts
12-Jun-17 10:39 33.938609 -118.401607 82 140ft 14kts
12-Jun-17 10:40 33.939149 -118.396269 81 140ft 17kts
12-Jun-17 10:41 33.939806 -118.389849 82 140ft 20kts
12-Jun-17 10:42 33.940510 -118.382894 83 140ft 22kts
12-Jun-17 10:43 33.940680 -118.381037 88 140ft 0kts
12-Jun-17 10:44 33.940680 -118.381036 88 140ft 0kts
12-Jun-17 10:45 33.939203 -118.385567 263 140ft 79kts
12-Jun-17 10:46 33.934538 -118.430119 263 1372ft 144kts
12-Jun-17 10:47 33.918044 -118.487675 229 2977ft 235kts
12-Jun-17 10:48 33.865144 -118.546373 216 6295ft 273kts
12-Jun-17 10:49 33.787657 -118.544860 169 9937ft 304kts
12-Jun-17 10:50 33.697518 -118.505004 134 10992ft 387kts
12-Jun-17 10:51 33.656102 -118.383569 107 13965ft 408kts
12-Jun-17 10:52 33.644080 -118.245345 88 16822ft 438kts
12-Jun-17 10:53 33.644637 -118.097775 89 18639ft 447kts
12-Jun-17 10:54 33.644749 -117.945533 90 21307ft 466kts
12-Jun-17 10:55 33.644454 -117.786582 91 23574ft 484kts
12-Jun-17 10:56 33.643952 -117.622711 91 25526ft 499kts
12-Jun-17 10:57 33.643135 -117.453928 92 27171ft 513kts
12-Jun-17 10:58 33.642053 -117.280835 92 28581ft 525kts
12-Jun-17 10:59 33.640690 -117.103489 93 29089ft 532kts
12-Jun-17 11:00 33.639070 -116.926596 93 29082ft 530kts
12-Jun-17 11:01 33.637228 -116.750138 93 29046ft 530kts
12-Jun-17 11:02 33.635093 -116.572780 93 29032ft 531kts
12-Jun-17 11:03 33.632720 -116.395875 94 29014ft 532kts
12-Jun-17 11:04 33.630087 -116.218684 94 28985ft 532kts
12-Jun-17 11:05 33.626817 -116.041381 94 28979ft 532kts
12-Jun-17 11:06 33.623315 -115.863651 94 28984ft 531kts
12-Jun-17 11:07 33.620032 -115.697168 94 28992ft 532kts
12-Jun-17 11:08 33.616220 -115.509834 94 28995ft 529kts
12-Jun-17 11:09 33.612466 -115.333148 94 29002ft 528kts
12-Jun-17 11:10 33.608523 -115.157355 95 29008ft 528kts
12-Jun-17 11:11 33.604348 -114.981652 95 29012ft 527kts
12-Jun-17 11:12 33.599918 -114.806113 95 29017ft 527kts
12-Jun-17 11:13 33.578153 -114.641192 110 28271ft 469kts
12-Jun-17 11:14 33.546957 -114.491712 110 27271ft 459kts
12-Jun-17 11:15 33.516873 -114.344184 109 26271ft 453kts
12-Jun-17 11:16 33.487645 -114.198810 109 25271ft 445kts
12-Jun-17 11:17 33.458721 -114.055141 109 24889ft 443kts
12-Jun-17 11:18 33.429631 -113.913439 109 23891ft 434kts
12-Jun-17 11:19 33.401231 -113.773953 108 23308ft 430kts
12-Jun-17 11:20 33.373202 -113.635677 108 22727ft 424kts
12-Jun-17 11:21 33.345540 -113.499466 108 22149ft 419kts
12-Jun-17 11:22 33.320541 -113.364191 106 21227ft 414kts
12-Jun-17 11:23 33.297642 -113.231273 105 20168ft 405kts
12-Jun-17 11:24 33.278535 -113.099717 104 19165ft 393kts
12-Jun-17 11:25 33.275769 -112.969960 90 18007ft 389kts
12-Jun-17 11:26 33.279839 -112.843252 91 17050ft 366kts
12-Jun-17 11:27 33.289562 -112.723301 85 16387ft 360kts
12-Jun-17 11:28 33.300871 -112.605464 86 15626ft 354kts
12-Jun-17 11:29 33.311739 -112.489444 86 14869ft 348kts
12-Jun-17 11:30 33.322268 -112.375250 86 14129ft 343kts
12-Jun-17 11:31 33.332478 -112.261722 86 11971ft 337kts
12-Jun-17 11:32 33.341955 -112.157664 87 10843ft 285kts
12-Jun-17 11:33 33.347329 -112.067315 93 9217ft 263kts
12-Jun-17 11:34 33.346280 -111.981889 93 7427ft 250kts
12-Jun-17 11:35 33.348648 -111.898765 89 7026ft 246kts
12-Jun-17 11:36 33.353462 -111.818155 88 6111ft 240kts
12-Jun-17 11:37 33.358738 -111.741035 78 5223ft 222kts
12-Jun-17 11:38 33.410904 -111.718533 354 4595ft 219kts
12-Jun-17 11:39 33.447861 -111.753173 248 4491ft 154kts
12-Jun-17 11:40 33.441265 -111.804636 262 4144ft 157kts
12-Jun-17 11:41 33.440714 -111.856176 265 3328ft 153kts
12-Jun-17 11:42 33.440712 -111.907314 266 2531ft 154kts
12-Jun-17 11:43 33.440789 -111.958574 267 1716ft 154kts
12-Jun-17 11:44 33.440880 -112.005474 269 1149ft 56kts
12-Jun-17 11:45 33.439819 -112.007020 99 1149ft 13kts
12-Jun-17 11:46 33.439211 -112.000867 194 1149ft 7kts
12-Jun-17 11:47 33.438333 -112.003861 176 1149ft 11kts
12-Jun-17 11:48 33.437181 -112.002551 91 1149ft 0kts
12-Jun-17 11:49 33.437181 -112.002551 91 1149ft 0kts
12-Jun-17 11:50 33.437181 -112.002551 91 1149ft 0kts
12-Jun-17 11:51 33.437181 -112.002551 91 1149ft 0kts

Navigation Log

Ident Type
Flight plan parsing failed, navigation log unavailable